Time;durP1;ratioP1;P1;durP2;ratioP2;P2;SDS_P1;SDS_P2;PMS_P1;PMS_P2;Temp;Humidity;BMP_temperature;BMP_pressure;BME280_temperature;BME280_humidity;BME280_pressure;Samples;Min_cycle;Max_cycle;Signal;HPM_P1;HPM_P2
2023/02/19 00:00:14;;;;;;;2.80;1.63;;;12.40;99.90;;;;;;5052139;28;20319;-59
2023/02/19 00:02:41;;;;;;;1.90;1.70;;;12.40;99.90;;;;;;5052292;28;20226;-58
2023/02/19 00:05:08;;;;;;;2.13;1.80;;;12.40;99.90;;;;;;5052131;28;20197;-58
2023/02/19 00:07:35;;;;;;;2.13;1.93;;;12.30;99.90;;;;;;5052564;28;20235;-59
2023/02/19 00:10:02;;;;;;;2.13;1.93;;;12.30;99.90;;;;;;5053177;28;20202;-59
2023/02/19 00:12:29;;;;;;;2.00;1.80;;;12.30;99.90;;;;;;5052952;28;20259;-59
2023/02/19 00:14:57;;;;;;;2.50;2.30;;;12.40;99.90;;;;;;5052817;28;20202;-59
2023/02/19 00:17:25;;;;;;;2.60;2.20;;;12.40;99.90;;;;;;5053052;28;20221;-60
2023/02/19 00:19:52;;;;;;;2.40;2.20;;;12.40;99.90;;;;;;5053221;28;20209;-59
2023/02/19 00:22:18;;;;;;;2.27;2.07;;;12.30;99.90;;;;;;5054515;28;20218;-58
2023/02/19 00:24:45;;;;;;;2.43;2.20;;;12.30;99.90;;;;;;5056705;28;20209;-58
2023/02/19 00:27:12;;;;;;;2.40;2.20;;;12.30;99.90;;;;;;5056146;28;20225;-58
2023/02/19 00:29:39;;;;;;;4.17;2.40;;;12.30;99.90;;;;;;5057977;28;20220;-58
2023/02/19 00:32:05;;;;;;;2.60;2.30;;;12.30;99.90;;;;;;5057535;28;20288;-58
2023/02/19 00:34:33;;;;;;;2.57;2.30;;;12.40;99.90;;;;;;5057224;28;20212;-58
2023/02/19 00:37:00;;;;;;;3.43;2.43;;;12.30;99.90;;;;;;5057143;28;20233;-58
2023/02/19 00:39:27;;;;;;;4.40;2.60;;;12.40;99.90;;;;;;5057225;28;20255;-58
2023/02/19 00:41:54;;;;;;;3.97;2.90;;;12.40;99.90;;;;;;5057115;28;20296;-58
2023/02/19 00:44:21;;;;;;;4.00;2.80;;;12.40;99.90;;;;;;5056916;28;20204;-60
2023/02/19 00:46:48;;;;;;;3.37;2.80;;;12.40;99.90;;;;;;5056910;28;20233;-57
2023/02/19 00:49:18;;;;;;;3.20;2.90;;;12.40;99.90;;;;;;5057665;28;20202;-58
2023/02/19 00:51:47;;;;;;;3.23;2.93;;;12.50;99.90;;;;;;5057295;28;20216;-58
2023/02/19 00:54:15;;;;;;;3.07;2.77;;;12.50;99.90;;;;;;5058080;28;20206;-57
2023/02/19 00:56:43;;;;;;;3.37;3.07;;;12.50;99.90;;;;;;5057690;28;20225;-59
2023/02/19 00:59:10;;;;;;;3.10;2.80;;;12.40;99.90;;;;;;5058371;28;20205;-58
2023/02/19 01:01:37;;;;;;;3.00;2.70;;;12.40;99.90;;;;;;5056919;28;20206;-59
2023/02/19 01:04:04;;;;;;;2.70;2.50;;;12.40;99.90;;;;;;5057098;28;20236;-58
2023/02/19 01:06:31;;;;;;;2.73;2.53;;;12.40;99.90;;;;;;5055755;28;20233;-58
2023/02/19 01:08:59;;;;;;;2.97;2.73;;;12.30;99.90;;;;;;5056856;28;20206;-58
2023/02/19 01:11:27;;;;;;;3.40;2.47;;;12.30;99.90;;;;;;5056893;28;20205;-59
2023/02/19 01:13:57;;;;;;;3.20;2.60;;;12.30;99.90;;;;;;5057608;28;20225;-60
2023/02/19 01:16:24;;;;;;;2.73;2.53;;;12.30;99.90;;;;;;5057733;28;20213;-60
2023/02/19 01:18:51;;;;;;;3.80;3.40;;;12.30;99.90;;;;;;5058124;28;20251;-58
2023/02/19 01:21:20;;;;;;;3.47;2.43;;;12.20;99.90;;;;;;5057821;28;20201;-59
2023/02/19 01:23:48;;;;;;;2.80;2.60;;;12.30;99.90;;;;;;5057829;28;20225;-59
2023/02/19 01:26:18;;;;;;;3.10;2.70;;;12.20;99.90;;;;;;5056621;28;20212;-59
2023/02/19 01:28:45;;;;;;;3.03;2.77;;;12.30;99.90;;;;;;5056794;28;20205;-59
2023/02/19 01:31:14;;;;;;;4.53;3.20;;;12.30;99.90;;;;;;5056828;28;20209;-58
2023/02/19 01:33:44;;;;;;;3.63;2.90;;;12.30;99.90;;;;;;5055231;28;20206;-61
2023/02/19 01:36:11;;;;;;;3.10;2.80;;;12.30;99.90;;;;;;5055970;28;20606;-60
2023/02/19 01:38:38;;;;;;;4.30;2.70;;;12.30;99.90;;;;;;5055784;28;20288;-60
2023/02/19 01:41:07;;;;;;;3.83;3.00;;;12.30;99.90;;;;;;5055619;28;20217;-61
2023/02/19 01:43:54;;;;;;;12.40;5.80;;;12.30;99.90;;;;;;5056075;28;20221;-59
2023/02/19 01:46:21;;;;;;;8.23;4.20;;;12.40;99.90;;;;;;5054834;28;20229;-60
2023/02/19 01:48:48;;;;;;;3.53;2.93;;;12.40;99.90;;;;;;5056205;28;20213;-59
2023/02/19 01:51:18;;;;;;;3.53;2.70;;;12.30;99.90;;;;;;5055170;28;20313;-60
2023/02/19 01:53:49;;;;;;;2.70;2.50;;;12.40;99.90;;;;;;5055479;28;20202;-60
2023/02/19 01:56:18;;;;;;;3.20;2.57;;;12.40;99.90;;;;;;5055435;28;20214;-59
2023/02/19 01:58:46;;;;;;;2.83;2.63;;;12.40;99.90;;;;;;5054974;28;20216;-59
2023/02/19 02:01:14;;;;;;;3.03;2.77;;;12.40;99.90;;;;;;5055199;28;20213;-60
2023/02/19 02:03:43;;;;;;;3.10;2.80;;;12.30;99.90;;;;;;5054773;28;20229;-60
2023/02/19 02:06:16;;;;;;;3.57;2.90;;;12.30;99.90;;;;;;5055087;28;20213;-61
2023/02/19 02:11:29;;;;;;;2.90;2.60;;;12.20;99.90;;;;;;5054673;28;20205;-61
2023/02/19 02:13:58;;;;;;;3.17;2.87;;;12.20;99.90;;;;;;5054582;28;20233;-60
2023/02/19 02:16:33;;;;;;;3.47;3.17;;;12.20;99.90;;;;;;5054607;28;20221;-59
2023/02/19 02:19:05;;;;;;;4.20;3.00;;;12.20;99.90;;;;;;5054773;28;20595;-60
2023/02/19 02:21:57;;;;;;;3.63;2.97;;;12.20;99.90;;;;;;5054892;28;20209;-61
2023/02/19 02:24:57;;;;;;;3.57;3.00;;;12.10;99.90;;;;;;5053961;28;20224;-59
2023/02/19 02:27:42;;;;;;;3.33;3.00;;;12.10;99.90;;;;;;5053562;28;20316;-60
2023/02/19 02:30:22;;;;;;;3.20;2.90;;;12.00;99.90;;;;;;5054366;28;20216;-60
2023/02/19 02:32:57;;;;;;;5.00;3.20;;;11.90;99.90;;;;;;5054342;28;20208;-61
2023/02/19 02:35:28;;;;;;;3.60;2.87;;;11.90;99.90;;;;;;5053624;28;20209;-59
2023/02/19 02:38:00;;;;;;;3.40;3.10;;;11.90;99.90;;;;;;5054262;28;20225;-60
2023/02/19 02:40:27;;;;;;;3.80;3.00;;;11.90;99.90;;;;;;5054113;28;20209;-61
2023/02/19 02:42:57;;;;;;;3.17;2.97;;;11.90;99.90;;;;;;5053910;28;20252;-61
2023/02/19 02:45:36;;;;;;;3.30;2.77;;;11.80;99.90;;;;;;5053530;28;20209;-60
2023/02/19 02:48:12;;;;;;;2.77;2.57;;;11.90;99.90;;;;;;5053575;28;20640;-58
2023/02/19 02:50:43;;;;;;;2.93;2.73;;;11.90;99.90;;;;;;5053169;28;20217;-59
2023/02/19 02:56:00;;;;;;;3.07;2.60;;;12.00;99.90;;;;;;5053148;28;20216;-59
2023/02/19 02:58:27;;;;;;;3.83;2.90;;;11.90;99.90;;;;;;5053224;28;20249;-58
2023/02/19 03:03:50;;;;;;;2.80;2.50;;;12.00;99.90;;;;;;5052790;28;20655;-59
2023/02/19 03:06:22;;;;;;;2.93;2.00;;;12.00;99.90;;;;;;5053162;28;20216;-59
2023/02/19 03:08:55;;;;;;;2.80;2.13;;;11.90;99.90;;;;;;5052839;28;20292;-59
2023/02/19 03:19:50;;;;;;;2.67;2.27;;;11.70;99.90;;;;;;5053362;28;20209;-61
2023/02/19 03:22:20;;;;;;;3.00;1.80;;;11.70;99.90;;;;;;5053619;28;20281;-60
2023/02/19 03:27:39;;;;;;;3.50;2.00;;;11.70;99.90;;;;;;5052942;28;20248;-60
2023/02/19 03:30:12;;;;;;;2.90;1.97;;;11.80;99.90;;;;;;5053675;28;20673;-61
2023/02/19 03:32:44;;;;;;;1.93;1.80;;;11.80;99.90;;;;;;5053177;28;20217;-60
2023/02/19 03:35:16;;;;;;;3.17;2.00;;;11.80;99.90;;;;;;5053409;28;20217;-60
2023/02/19 03:37:46;;;;;;;2.10;1.90;;;11.80;99.90;;;;;;5052868;28;20237;-60
2023/02/19 03:40:13;;;;;;;2.50;2.13;;;11.80;99.90;;;;;;5053553;28;20205;-60
2023/02/19 03:42:44;;;;;;;3.30;2.10;;;11.70;99.90;;;;;;5052516;28;20236;-59
2023/02/19 03:45:36;;;;;;;3.70;2.00;;;11.70;99.90;;;;;;5052570;28;20205;-60
2023/02/19 03:48:24;;;;;;;2.10;1.60;;;11.70;99.90;;;;;;5052205;28;20635;-59
2023/02/19 03:50:59;;;;;;;1.70;1.60;;;11.70;99.90;;;;;;5052434;28;20214;-59
2023/02/19 03:53:32;;;;;;;1.60;1.50;;;11.70;99.90;;;;;;5052412;28;20201;-59
2023/02/19 03:56:07;;;;;;;2.40;1.80;;;11.70;99.90;;;;;;5053450;28;20255;-58
2023/02/19 03:58:42;;;;;;;1.93;1.80;;;11.60;99.90;;;;;;5056280;28;20201;-59
2023/02/19 04:01:14;;;;;;;2.53;1.47;;;11.60;99.90;;;;;;5056697;28;20204;-59
2023/02/19 04:03:48;;;;;;;1.70;1.60;;;11.50;99.90;;;;;;5056309;28;20225;-59
2023/02/19 04:06:22;;;;;;;1.93;1.60;;;11.50;99.90;;;;;;5056998;28;20673;-59
2023/02/19 04:08:52;;;;;;;2.57;1.60;;;11.50;99.90;;;;;;5056395;28;20216;-58
2023/02/19 04:11:21;;;;;;;1.73;1.63;;;11.50;99.90;;;;;;5056524;28;20300;-59
2023/02/19 04:13:52;;;;;;;2.20;1.40;;;11.50;99.90;;;;;;5056098;28;20669;-58
2023/02/19 04:16:22;;;;;;;2.10;1.30;;;11.60;99.90;;;;;;5056941;28;20205;-59
2023/02/19 04:18:54;;;;;;;1.30;1.20;;;11.60;99.90;;;;;;5056499;28;20673;-60
2023/02/19 04:21:22;;;;;;;1.40;1.27;;;11.70;99.90;;;;;;5057081;28;20213;-60
2023/02/19 04:23:50;;;;;;;1.30;1.20;;;11.70;99.90;;;;;;5056764;28;20233;-60
2023/02/19 04:26:19;;;;;;;2.70;1.63;;;11.70;99.90;;;;;;5056709;28;20213;-60
2023/02/19 04:28:46;;;;;;;1.30;1.13;;;11.70;99.90;;;;;;5056583;28;20764;-60
2023/02/19 04:31:13;;;;;;;1.30;1.20;;;11.70;99.90;;;;;;5057188;28;20213;-60
2023/02/19 04:33:40;;;;;;;1.57;1.27;;;11.70;99.90;;;;;;5056501;28;20206;-60
2023/02/19 04:36:10;;;;;;;1.30;1.20;;;11.80;99.90;;;;;;5056811;28;20217;-60
2023/02/19 04:38:37;;;;;;;3.20;1.30;;;11.70;99.90;;;;;;5056517;28;20209;-59
2023/02/19 04:41:05;;;;;;;2.37;1.30;;;11.70;99.90;;;;;;5056702;28;20212;-59
2023/02/19 04:43:31;;;;;;;1.40;1.27;;;11.70;99.90;;;;;;5056500;28;20253;-59
2023/02/19 04:46:00;;;;;;;1.33;1.23;;;11.70;99.90;;;;;;5056570;28;20422;-59
2023/02/19 04:48:27;;;;;;;1.40;1.30;;;11.60;99.90;;;;;;5056184;28;20217;-59
2023/02/19 04:50:53;;;;;;;0.90;0.90;;;11.60;99.90;;;;;;5056709;28;20232;-59
2023/02/19 04:53:21;;;;;;;1.00;0.90;;;11.50;99.90;;;;;;5056566;28;20209;-60
2023/02/19 04:55:52;;;;;;;2.97;0.90;;;11.40;99.90;;;;;;5056021;28;20213;-60
2023/02/19 04:58:19;;;;;;;0.40;0.40;;;11.40;99.90;;;;;;5056202;28;20777;-59
2023/02/19 05:00:46;;;;;;;0.30;0.30;;;11.30;99.90;;;;;;5056201;28;20210;-60
2023/02/19 05:03:12;;;;;;;0.20;0.20;;;11.20;99.90;;;;;;5055702;28;20626;-59
2023/02/19 05:05:39;;;;;;;0.53;0.40;;;11.10;99.90;;;;;;5055551;28;20210;-60
2023/02/19 05:08:06;;;;;;;0.50;0.30;;;11.10;99.90;;;;;;5054533;28;20710;-59
2023/02/19 05:10:34;;;;;;;0.27;0.20;;;11.20;99.90;;;;;;5056036;28;20209;-60
2023/02/19 05:13:01;;;;;;;0.20;0.20;;;11.20;99.90;;;;;;5055883;28;20634;-60
2023/02/19 05:15:28;;;;;;;0.40;0.40;;;11.30;99.90;;;;;;5055730;28;20205;-58
2023/02/19 05:17:54;;;;;;;0.30;0.30;;;11.20;99.90;;;;;;5055232;28;20600;-59
2023/02/19 05:20:22;;;;;;;0.20;0.20;;;11.20;99.90;;;;;;5055397;28;20224;-59
2023/02/19 05:22:49;;;;;;;0.50;0.40;;;11.10;99.90;;;;;;5055336;28;20229;-58
2023/02/19 05:25:16;;;;;;;0.87;0.40;;;11.10;99.90;;;;;;5055529;28;20305;-60
2023/02/19 05:27:44;;;;;;;1.87;0.50;;;11.10;99.90;;;;;;5055276;28;20236;-58
2023/02/19 05:30:11;;;;;;;0.40;0.40;;;11.10;99.90;;;;;;5055643;28;20212;-58
2023/02/19 05:32:38;;;;;;;0.60;0.30;;;11.20;99.90;;;;;;5055477;28;20600;-58
2023/02/19 05:35:06;;;;;;;0.47;0.47;;;11.20;99.90;;;;;;5055463;28;20613;-58
2023/02/19 05:37:32;;;;;;;2.50;0.47;;;11.20;99.90;;;;;;5054991;28;20229;-60
2023/02/19 05:39:59;;;;;;;1.90;0.47;;;11.10;99.90;;;;;;5055629;28;20219;-60
2023/02/19 05:42:26;;;;;;;9.30;8.30;;;11.10;99.90;;;;;;5055475;28;20202;-59
2023/02/19 05:44:54;;;;;;;0.53;0.47;;;11.10;99.90;;;;;;5055585;28;20222;-59
2023/02/19 05:47:20;;;;;;;0.53;0.27;;;11.20;99.90;;;;;;5055010;28;20295;-59
2023/02/19 05:49:47;;;;;;;0.20;0.20;;;11.20;99.90;;;;;;5055351;28;20209;-58
2023/02/19 05:52:14;;;;;;;0.50;0.27;;;11.20;99.90;;;;;;5055063;28;20658;-59
2023/02/19 05:54:41;;;;;;;0.60;0.40;;;11.20;99.90;;;;;;5055734;28;20205;-59
2023/02/19 05:57:08;;;;;;;0.87;0.70;;;11.20;99.90;;;;;;5054907;28;20312;-60
2023/02/19 05:59:34;;;;;;;0.30;0.30;;;11.20;99.90;;;;;;5055211;28;20205;-60
2023/02/19 06:02:02;;;;;;;0.40;0.40;;;11.30;99.90;;;;;;5055241;28;20696;-60
2023/02/19 06:04:29;;;;;;;0.97;0.40;;;11.20;99.90;;;;;;5054757;28;20232;-60
2023/02/19 06:06:56;;;;;;;0.30;0.30;;;11.10;99.90;;;;;;5054770;28;20225;-61
2023/02/19 06:09:22;;;;;;;0.40;0.40;;;11.10;99.90;;;;;;5054938;28;20236;-60
2023/02/19 06:11:49;;;;;;;0.33;0.33;;;11.20;99.90;;;;;;5054971;28;20206;-60
2023/02/19 06:14:16;;;;;;;0.60;0.47;;;11.20;99.90;;;;;;5055477;28;20198;-60
2023/02/19 06:16:43;;;;;;;0.23;0.23;;;11.10;99.90;;;;;;5055619;28;20336;-59
2023/02/19 06:19:11;;;;;;;0.20;0.20;;;11.00;99.90;;;;;;5055760;28;20209;-61
2023/02/19 06:21:37;;;;;;;0.23;0.20;;;11.00;99.90;;;;;;5055432;28;20213;-59
2023/02/19 06:24:06;;;;;;;1.70;0.40;;;11.00;99.90;;;;;;5054434;28;20225;-60
2023/02/19 06:26:33;;;;;;;0.40;0.30;;;11.00;99.90;;;;;;5055171;28;20222;-59
2023/02/19 06:29:00;;;;;;;0.77;0.30;;;11.00;99.90;;;;;;5054119;28;20209;-59
2023/02/19 06:31:26;;;;;;;0.20;0.20;;;11.00;99.90;;;;;;5054268;28;20674;-60
2023/02/19 06:33:53;;;;;;;0.50;0.50;;;10.90;99.90;;;;;;5054770;28;20220;-59
2023/02/19 06:36:22;;;;;;;0.57;0.57;;;10.80;99.90;;;;;;5054357;28;20244;-60
2023/02/19 06:38:49;;;;;;;0.87;0.57;;;10.80;99.90;;;;;;5054417;28;20283;-59
2023/02/19 06:41:16;;;;;;;0.60;0.50;;;10.90;99.90;;;;;;5054613;28;20209;-60
2023/02/19 06:43:43;;;;;;;0.40;0.40;;;11.00;99.90;;;;;;5054397;28;20213;-59
2023/02/19 06:46:11;;;;;;;0.30;0.30;;;11.10;99.90;;;;;;5054317;28;20691;-60
2023/02/19 06:48:39;;;;;;;0.47;0.43;;;11.00;99.90;;;;;;5054419;28;20206;-61
2023/02/19 06:51:06;;;;;;;0.87;0.60;;;11.00;99.90;;;;;;5054335;28;20236;-61
2023/02/19 06:53:34;;;;;;;0.37;0.30;;;11.00;99.90;;;;;;5054920;28;20217;-61
2023/02/19 06:56:04;;;;;;;0.40;0.40;;;11.10;99.90;;;;;;5055710;28;20680;-60
2023/02/19 06:58:31;;;;;;;0.30;0.30;;;11.20;99.90;;;;;;5054996;28;20585;-61
2023/02/19 07:00:58;;;;;;;0.97;0.70;;;11.20;99.90;;;;;;5055021;28;20210;-60
2023/02/19 07:03:26;;;;;;;0.83;0.67;;;11.20;99.90;;;;;;5054110;28;20213;-61
2023/02/19 07:05:53;;;;;;;2.83;0.87;;;11.30;99.90;;;;;;5053897;28;20255;-61
2023/02/19 07:08:20;;;;;;;0.70;0.60;;;11.20;99.90;;;;;;5054200;28;20229;-61
2023/02/19 07:10:55;;;;;;;0.40;0.40;;;11.20;99.90;;;;;;5054151;28;20217;-61
2023/02/19 07:13:21;;;;;;;0.47;0.47;;;11.20;99.90;;;;;;5054634;28;20201;-61
2023/02/19 07:15:48;;;;;;;1.10;0.80;;;11.20;99.90;;;;;;5054614;28;20202;-59
2023/02/19 07:18:15;;;;;;;0.57;0.53;;;11.30;99.90;;;;;;5053466;28;20229;-59
2023/02/19 07:20:42;;;;;;;0.40;0.40;;;11.30;99.90;;;;;;5053654;28;20217;-60
2023/02/19 07:23:08;;;;;;;1.13;0.77;;;11.40;99.90;;;;;;5054131;28;20570;-59
2023/02/19 07:25:37;;;;;;;0.77;0.73;;;11.50;99.90;;;;;;5054171;28;20229;-60
2023/02/19 07:28:05;;;;;;;0.90;0.90;;;11.50;99.90;;;;;;5055851;28;20221;-60
2023/02/19 07:30:32;;;;;;;1.00;0.80;;;11.50;99.90;;;;;;5057493;28;20573;-60
2023/02/19 07:32:59;;;;;;;1.10;1.00;;;11.40;99.90;;;;;;5058905;28;20243;-59
2023/02/19 07:35:26;;;;;;;1.00;0.90;;;11.40;99.90;;;;;;5057976;28;20241;-60
2023/02/19 07:37:53;;;;;;;1.03;1.00;;;11.30;99.90;;;;;;5055163;28;20232;-59
2023/02/19 07:40:19;;;;;;;1.60;1.30;;;11.30;99.90;;;;;;5052630;28;20207;-60
2023/02/19 07:42:46;;;;;;;1.17;1.00;;;11.30;99.90;;;;;;5052901;28;20205;-61
2023/02/19 07:45:14;;;;;;;1.90;1.50;;;11.30;99.90;;;;;;5052917;28;20556;-60
2023/02/19 07:47:41;;;;;;;1.13;1.00;;;11.40;99.90;;;;;;5052801;28;20237;-59
2023/02/19 07:50:08;;;;;;;0.90;0.87;;;11.50;99.90;;;;;;5053356;28;20216;-60
2023/02/19 07:52:35;;;;;;;1.37;1.10;;;11.50;99.90;;;;;;5053203;28;20209;-60
2023/02/19 07:55:02;;;;;;;2.30;0.97;;;11.50;99.90;;;;;;5053002;28;20205;-60
2023/02/19 07:57:30;;;;;;;1.23;1.13;;;11.50;99.90;;;;;;5052812;28;20313;-59
2023/02/19 07:59:57;;;;;;;1.10;1.00;;;11.50;99.90;;;;;;5052992;28;20205;-61
2023/02/19 08:05:10;;;;;;;1.97;1.10;;;11.60;99.90;;;;;;5052919;28;20224;-58
2023/02/19 08:07:37;;;;;;;1.70;1.23;;;11.60;99.90;;;;;;5052886;28;20235;-61
2023/02/19 08:13:19;;;;;;;1.47;1.20;;;11.80;99.90;;;;;;5010895;28;20249;-62
2023/02/19 08:15:46;;;;;;;1.27;1.07;;;11.80;99.90;;;;;;5047975;28;20251;-60
2023/02/19 08:18:16;;;;;;;1.40;1.13;;;11.80;99.90;;;;;;5052455;28;20697;-60
2023/02/19 08:20:43;;;;;;;1.53;1.17;;;11.90;99.90;;;;;;5052368;28;20548;-61
2023/02/19 08:23:10;;;;;;;1.93;1.00;;;12.00;99.90;;;;;;5052756;28;20209;-60
2023/02/19 08:25:37;;;;;;;1.20;1.10;;;12.10;99.90;;;;;;5052556;28;20659;-60
2023/02/19 08:28:04;;;;;;;1.57;0.90;;;12.20;99.90;;;;;;5052241;28;20306;-57
2023/02/19 08:30:33;;;;;;;1.03;0.93;;;12.20;99.90;;;;;;5052458;28;20685;-62
2023/02/19 08:33:00;;;;;;;2.60;1.10;;;12.30;99.90;;;;;;5052495;28;20216;-58
2023/02/19 08:35:29;;;;;;;1.87;0.80;;;12.40;99.90;;;;;;5052262;28;20686;-59
2023/02/19 08:37:56;;;;;;;1.13;0.93;;;12.50;99.90;;;;;;5051831;28;20221;-59
2023/02/19 08:40:23;;;;;;;1.53;1.00;;;12.60;99.90;;;;;;5052239;28;20197;-58
2023/02/19 08:42:50;;;;;;;2.23;1.60;;;12.60;99.90;;;;;;5053278;28;20213;-59
2023/02/19 08:45:17;;;;;;;7.33;3.83;;;12.60;99.90;;;;;;5056032;28;20255;-59
2023/02/19 08:47:44;;;;;;;1.00;0.73;;;12.70;99.90;;;;;;5055714;28;20747;-58
2023/02/19 08:50:11;;;;;;;1.07;0.80;;;12.80;99.90;;;;;;5055650;28;20209;-58
2023/02/19 08:52:39;;;;;;;3.03;2.03;;;12.80;99.90;;;;;;5055828;28;20255;-57
2023/02/19 08:55:07;;;;;;;1.40;1.00;;;12.90;99.90;;;;;;5055139;28;20206;-57
2023/02/19 08:57:36;;;;;;;0.93;0.90;;;13.00;99.90;;;;;;5054996;28;20226;-57
2023/02/19 09:00:04;;;;;;;2.20;1.07;;;13.10;99.90;;;;;;5055460;28;20206;-59
2023/02/19 09:02:31;;;;;;;1.30;1.00;;;13.00;99.90;;;;;;5055385;28;20684;-57
2023/02/19 09:04:57;;;;;;;2.30;0.90;;;13.10;99.90;;;;;;5054967;28;20307;-56
2023/02/19 09:07:24;;;;;;;1.63;0.70;;;13.20;99.90;;;;;;5054326;28;20593;-55
2023/02/19 09:09:52;;;;;;;0.60;0.60;;;13.30;99.90;;;;;;5054629;28;20206;-56
2023/02/19 09:12:19;;;;;;;0.93;0.70;;;13.40;99.90;;;;;;5054370;28;20216;-55
2023/02/19 09:14:46;;;;;;;1.33;0.90;;;13.40;99.90;;;;;;5054729;28;20202;-57
2023/02/19 09:17:13;;;;;;;1.23;0.60;;;13.40;99.90;;;;;;5054434;28;20504;-56
2023/02/19 09:19:39;;;;;;;1.53;0.80;;;13.50;99.90;;;;;;5054663;28;20296;-56
2023/02/19 09:22:06;;;;;;;1.63;1.10;;;13.50;99.90;;;;;;5054434;28;20213;-56
2023/02/19 09:24:33;;;;;;;2.90;1.60;;;13.50;99.90;;;;;;5054357;28;20834;-55
2023/02/19 09:27:01;;;;;;;1.10;1.00;;;13.30;99.90;;;;;;5054420;28;20251;-56
2023/02/19 09:29:29;;;;;;;1.87;1.10;;;13.30;99.90;;;;;;5054448;28;20202;-56
2023/02/19 09:31:59;;;;;;;3.87;1.43;;;13.20;99.90;;;;;;5054177;28;20225;-57
2023/02/19 09:34:27;;;;;;;2.10;1.40;;;13.30;99.90;;;;;;5053956;28;20206;-55
2023/02/19 09:36:55;;;;;;;3.10;1.20;;;13.40;99.90;;;;;;5054083;28;20221;-56
2023/02/19 09:39:22;;;;;;;1.97;1.10;;;13.50;99.90;;;;;;5053773;28;20201;-57
2023/02/19 09:41:52;;;;;;;1.30;1.17;;;13.50;99.90;;;;;;5053840;28;20584;-56
2023/02/19 09:44:27;;;;;;;1.67;1.20;;;13.60;99.90;;;;;;5054413;28;20213;-58
2023/02/19 09:46:54;;;;;;;2.20;1.17;;;13.60;99.90;;;;;;5053781;28;20229;-56
2023/02/19 09:49:27;;;;;;;2.53;1.33;;;13.70;99.90;;;;;;5054234;28;20228;-58
2023/02/19 09:51:58;;;;;;;3.57;1.77;;;13.80;99.90;;;;;;5054661;28;20205;-58
2023/02/19 09:54:26;;;;;;;2.60;1.57;;;13.70;99.90;;;;;;5054012;28;20205;-56
2023/02/19 09:56:55;;;;;;;4.10;1.63;;;13.70;99.90;;;;;;5054251;28;20232;-56
2023/02/19 09:59:26;;;;;;;3.87;1.20;;;13.80;99.90;;;;;;5053994;28;20284;-56
2023/02/19 10:01:59;;;;;;;2.57;0.90;;;13.90;99.90;;;;;;5054074;28;20213;-57
2023/02/19 10:04:25;;;;;;;2.37;1.50;;;13.90;99.90;;;;;;5053992;28;20194;-56
2023/02/19 10:06:57;;;;;;;2.80;1.17;;;14.00;99.90;;;;;;5054083;28;20716;-57
2023/02/19 10:09:27;;;;;;;2.30;1.00;;;14.00;99.90;;;;;;5053949;28;20274;-56
2023/02/19 10:11:56;;;;;;;2.10;1.10;;;14.10;99.90;;;;;;5054460;28;20206;-56
2023/02/19 10:14:30;;;;;;;7.60;4.20;;;14.10;99.90;;;;;;5053674;28;20620;-58
2023/02/19 10:17:05;;;;;;;5.17;1.97;;;14.10;99.90;;;;;;5053897;28;20228;-56
2023/02/19 10:19:32;;;;;;;1.80;1.00;;;14.10;99.90;;;;;;5053417;28;20270;-56
2023/02/19 10:22:01;;;;;;;9.77;6.63;;;14.20;99.90;;;;;;5053666;28;20205;-57
2023/02/19 10:24:30;;;;;;;4.57;2.70;;;14.20;99.90;;;;;;5053418;28;20209;-58
2023/02/19 10:26:57;;;;;;;2.60;0.80;;;14.20;99.90;;;;;;5052946;28;20226;-58
2023/02/19 10:29:26;;;;;;;1.73;1.13;;;14.30;99.90;;;;;;5053865;28;20630;-58
2023/02/19 10:32:19;;;;;;;2.67;0.90;;;14.40;99.90;;;;;;5053755;28;20206;-58
2023/02/19 10:34:46;;;;;;;3.93;0.90;;;14.40;99.90;;;;;;5053653;28;20209;-56
2023/02/19 10:37:16;;;;;;;1.53;0.83;;;14.50;99.90;;;;;;5053146;28;20221;-57
2023/02/19 10:39:46;;;;;;;2.13;0.90;;;14.40;99.90;;;;;;5053728;28;20210;-57
2023/02/19 10:42:18;;;;;;;3.07;1.10;;;14.30;99.90;;;;;;5053253;28;20237;-55
2023/02/19 10:44:50;;;;;;;2.00;0.80;;;14.30;99.90;;;;;;5053401;28;20325;-55
2023/02/19 10:47:20;;;;;;;2.83;1.30;;;14.20;99.90;;;;;;5052825;28;20240;-58
2023/02/19 10:49:48;;;;;;;1.50;0.83;;;14.20;99.90;;;;;;5053221;28;20277;-55
2023/02/19 10:52:20;;;;;;;1.80;0.70;;;14.30;99.90;;;;;;5053299;28;20205;-56
2023/02/19 10:54:51;;;;;;;3.97;1.30;;;14.30;99.90;;;;;;5053026;28;20201;-56
2023/02/19 10:57:31;;;;;;;3.53;1.00;;;14.40;99.90;;;;;;5054045;28;20225;-56
2023/02/19 11:00:02;;;;;;;1.23;0.70;;;14.40;99.90;;;;;;5052938;28;20730;-58
2023/02/19 11:02:30;;;;;;;4.37;0.90;;;14.30;99.90;;;;;;5053037;28;20205;-58
2023/02/19 11:05:15;;;;;;;1.40;0.60;;;14.40;99.90;;;;;;5052302;28;20678;-57
2023/02/19 11:07:45;;;;;;;3.43;1.23;;;14.50;99.90;;;;;;5052515;28;20236;-58
2023/02/19 11:10:26;;;;;;;6.37;1.50;;;14.50;99.90;;;;;;5052633;28;20280;-56
2023/02/19 11:12:56;;;;;;;1.60;1.00;;;14.50;99.90;;;;;;5052804;28;20205;-57
2023/02/19 11:15:28;;;;;;;1.57;0.97;;;14.40;99.90;;;;;;5052772;28;20205;-55
2023/02/19 11:17:56;;;;;;;3.37;1.10;;;14.20;99.90;;;;;;5052600;28;20229;-57
2023/02/19 11:20:24;;;;;;;2.57;0.80;;;14.10;99.90;;;;;;5052535;28;20701;-58
2023/02/19 11:22:51;;;;;;;2.10;1.20;;;14.00;99.90;;;;;;5052585;28;20639;-58
2023/02/19 11:25:24;;;;;;;2.97;1.20;;;14.00;99.90;;;;;;5052681;28;20212;-56
2023/02/19 11:28:01;;;;;;;3.23;1.00;;;14.10;99.90;;;;;;5052560;28;20320;-56
2023/02/19 11:30:40;;;;;;;2.00;1.00;;;14.00;99.90;;;;;;5052602;28;20591;-57
2023/02/19 11:33:21;;;;;;;1.37;0.80;;;14.00;99.90;;;;;;5052356;28;20216;-56
2023/02/19 11:35:49;;;;;;;1.80;0.97;;;14.10;99.90;;;;;;5052280;28;20719;-58
2023/02/19 11:38:19;;;;;;;3.97;1.10;;;14.10;99.90;;;;;;5052257;28;20232;-58
2023/02/19 11:40:52;;;;;;;1.50;0.80;;;14.00;99.90;;;;;;5052361;28;20208;-59
2023/02/19 11:43:41;;;;;;;2.20;0.80;;;14.10;99.90;;;;;;5052247;28;20240;-58
2023/02/19 11:46:18;;;;;;;3.93;2.70;;;14.10;99.90;;;;;;5052302;28;20225;-57
2023/02/19 11:49:05;;;;;;;2.73;1.23;;;14.30;99.90;;;;;;5052385;28;20224;-57
2023/02/19 11:51:59;;;;;;;1.83;0.87;;;14.50;99.90;;;;;;5052392;28;20216;-55
2023/02/19 11:54:38;;;;;;;3.97;1.70;;;14.70;99.90;;;;;;5052104;28;20214;-56
2023/02/19 11:57:16;;;;;;;2.30;1.50;;;14.80;99.90;;;;;;5052417;28;20221;-57
2023/02/19 11:59:50;;;;;;;3.53;1.00;;;15.00;99.90;;;;;;5052001;28;20206;-57
2023/02/19 12:02:43;;;;;;;2.77;1.13;;;15.20;99.90;;;;;;5051693;28;20205;-56
2023/02/19 12:05:32;;;;;;;4.05;1.20;;;15.20;99.90;;;;;;5051772;28;20263;-58
2023/02/19 12:08:33;;;;;;;2.50;1.20;;;15.30;99.90;;;;;;5051726;28;20229;-59
2023/02/19 12:11:14;;;;;;;2.13;1.17;;;15.20;99.90;;;;;;5051828;28;20212;-58
2023/02/19 12:14:01;;;;;;;2.23;1.00;;;15.20;99.90;;;;;;5052189;28;20228;-56
2023/02/19 12:16:33;;;;;;;3.87;1.27;;;15.30;99.90;;;;;;5052285;28;20225;-58
2023/02/19 12:19:19;;;;;;;2.10;1.07;;;15.20;99.90;;;;;;5055866;28;20208;-57
2023/02/19 12:22:06;;;;;;;3.77;1.80;;;15.20;99.90;;;;;;5055853;28;20210;-59
2023/02/19 12:25:09;;;;;;;3.67;1.63;;;15.10;99.90;;;;;;5055969;28;20209;-57
2023/02/19 12:27:48;;;;;;;4.00;1.90;;;15.00;99.90;;;;;;5055481;28;20229;-56
2023/02/19 12:30:35;;;;;;;2.40;0.87;;;15.00;99.90;;;;;;5056033;28;20193;-57
2023/02/19 12:33:24;;;;;;;2.77;1.20;;;15.10;99.90;;;;;;5055777;28;20213;-56
2023/02/19 12:36:02;;;;;;;2.93;1.30;;;15.10;99.90;;;;;;5055663;28;20206;-56
2023/02/19 12:38:33;;;;;;;4.20;2.00;;;15.10;99.90;;;;;;5055365;28;20205;-57
2023/02/19 12:41:18;;;;;;;1.93;1.10;;;15.00;99.90;;;;;;5056024;28;20208;-57
2023/02/19 12:43:51;;;;;;;2.07;1.10;;;14.80;99.90;;;;;;5055288;28;20213;-56
2023/02/19 12:46:22;;;;;;;5.60;1.50;;;14.60;99.90;;;;;;5055160;28;20316;-59
2023/02/19 12:48:55;;;;;;;3.23;1.40;;;14.70;99.90;;;;;;5054970;28;20271;-59
2023/02/19 12:51:27;;;;;;;3.93;1.80;;;15.00;99.90;;;;;;5055353;28;20213;-59
2023/02/19 12:53:58;;;;;;;7.60;3.40;;;15.30;99.90;;;;;;5052401;28;20206;-60
2023/02/19 12:56:29;;;;;;;13.90;8.93;;;15.60;99.90;;;;;;5053564;28;20253;-57
2023/02/19 12:59:01;;;;;;;3.73;2.10;;;15.70;99.90;;;;;;5053997;28;20197;-56
2023/02/19 13:01:32;;;;;;;2.80;1.40;;;15.60;99.90;;;;;;5054502;28;20209;-59
2023/02/19 13:04:15;;;;;;;2.33;1.83;;;15.40;99.90;;;;;;5053819;28;20227;-57
2023/02/19 13:06:50;;;;;;;2.37;1.00;;;15.30;99.90;;;;;;5053410;28;20706;-56
2023/02/19 13:09:21;;;;;;;4.20;1.00;;;14.90;99.90;;;;;;5053451;28;20228;-56
2023/02/19 13:11:50;;;;;;;4.07;1.77;;;14.70;99.90;;;;;;5053235;28;20209;-56
2023/02/19 13:14:25;;;;;;;2.13;1.03;;;14.50;99.90;;;;;;5053818;28;20217;-57
2023/02/19 13:16:57;;;;;;;1.40;0.93;;;14.20;99.90;;;;;;5053568;28;20225;-57
2023/02/19 13:19:24;;;;;;;2.03;1.00;;;14.00;99.90;;;;;;5053439;28;20296;-57
2023/02/19 13:24:45;;;;;;;2.80;1.20;;;13.80;99.90;;;;;;5054325;28;20264;-60
2023/02/19 13:27:30;;;;;;;2.27;1.00;;;13.80;99.90;;;;;;5053885;28;20614;-59
2023/02/19 13:30:10;;;;;;;2.27;1.00;;;13.80;99.90;;;;;;5053202;28;20209;-60
2023/02/19 13:33:11;;;;;;;2.37;0.93;;;13.80;99.90;;;;;;5054256;28;20669;-58